sensor_id;sensor_type;location;lat;lon;timestamp;temperature;humidity
70726;DHT22;58304;53.104;6.022;2023-01-05T00:01:48;9.80;99.90
70726;DHT22;58304;53.104;6.022;2023-01-05T00:04:14;9.80;99.90
70726;DHT22;58304;53.104;6.022;2023-01-05T00:06:40;9.80;99.90
70726;DHT22;58304;53.104;6.022;2023-01-05T00:09:07;9.80;99.90
70726;DHT22;58304;53.104;6.022;2023-01-05T00:11:35;9.80;99.90
70726;DHT22;58304;53.104;6.022;2023-01-05T00:14:22;9.70;99.90
70726;DHT22;58304;53.104;6.022;2023-01-05T00:17:11;9.70;99.90
70726;DHT22;58304;53.104;6.022;2023-01-05T00:19:56;9.70;99.90
70726;DHT22;58304;53.104;6.022;2023-01-05T00:25:13;9.60;99.90
70726;DHT22;58304;53.104;6.022;2023-01-05T00:27:41;9.60;99.90
70726;DHT22;58304;53.104;6.022;2023-01-05T00:30:08;9.70;99.90
70726;DHT22;58304;53.104;6.022;2023-01-05T00:32:34;9.80;99.90
70726;DHT22;58304;53.104;6.022;2023-01-05T00:35:00;9.70;99.90
70726;DHT22;58304;53.104;6.022;2023-01-05T00:37:30;9.80;99.90
70726;DHT22;58304;53.104;6.022;2023-01-05T00:39:55;9.80;99.90
70726;DHT22;58304;53.104;6.022;2023-01-05T00:42:21;9.80;99.90
70726;DHT22;58304;53.104;6.022;2023-01-05T00:44:47;9.60;99.90
70726;DHT22;58304;53.104;6.022;2023-01-05T00:47:13;9.70;99.90
70726;DHT22;58304;53.104;6.022;2023-01-05T00:49:38;9.70;99.90
70726;DHT22;58304;53.104;6.022;2023-01-05T00:52:04;9.70;99.90
70726;DHT22;58304;53.104;6.022;2023-01-05T00:54:30;9.70;99.90
70726;DHT22;58304;53.104;6.022;2023-01-05T00:56:55;9.70;99.90
70726;DHT22;58304;53.104;6.022;2023-01-05T00:59:21;9.80;99.90
70726;DHT22;58304;53.104;6.022;2023-01-05T01:01:47;9.80;99.90
70726;DHT22;58304;53.104;6.022;2023-01-05T01:04:13;9.80;99.90
70726;DHT22;58304;53.104;6.022;2023-01-05T01:06:39;9.70;99.90
70726;DHT22;58304;53.104;6.022;2023-01-05T01:09:05;9.70;99.90
70726;DHT22;58304;53.104;6.022;2023-01-05T01:11:31;9.80;99.90
70726;DHT22;58304;53.104;6.022;2023-01-05T01:13:56;9.80;99.90
70726;DHT22;58304;53.104;6.022;2023-01-05T01:16:22;9.90;99.90
70726;DHT22;58304;53.104;6.022;2023-01-05T01:18:48;9.80;99.90
70726;DHT22;58304;53.104;6.022;2023-01-05T01:21:13;9.80;99.90
70726;DHT22;58304;53.104;6.022;2023-01-05T01:23:39;9.70;99.90
70726;DHT22;58304;53.104;6.022;2023-01-05T01:26:10;9.80;99.90
70726;DHT22;58304;53.104;6.022;2023-01-05T01:28:36;9.70;99.90
70726;DHT22;58304;53.104;6.022;2023-01-05T01:31:02;9.80;99.90
70726;DHT22;58304;53.104;6.022;2023-01-05T01:33:28;9.70;99.90
70726;DHT22;58304;53.104;6.022;2023-01-05T01:35:54;9.80;99.90
70726;DHT22;58304;53.104;6.022;2023-01-05T01:38:20;9.70;99.90
70726;DHT22;58304;53.104;6.022;2023-01-05T01:40:46;9.70;99.90
70726;DHT22;58304;53.104;6.022;2023-01-05T01:43:37;9.70;99.90
70726;DHT22;58304;53.104;6.022;2023-01-05T01:46:04;9.70;99.90
70726;DHT22;58304;53.104;6.022;2023-01-05T01:48:29;9.70;99.90
70726;DHT22;58304;53.104;6.022;2023-01-05T01:50:55;9.70;99.90
70726;DHT22;58304;53.104;6.022;2023-01-05T01:55:51;9.70;99.90
70726;DHT22;58304;53.104;6.022;2023-01-05T01:58:18;9.70;99.90
70726;DHT22;58304;53.104;6.022;2023-01-05T02:00:45;9.70;99.90
70726;DHT22;58304;53.104;6.022;2023-01-05T02:03:11;9.70;99.90
70726;DHT22;58304;53.104;6.022;2023-01-05T02:05:37;9.60;99.90
70726;DHT22;58304;53.104;6.022;2023-01-05T02:08:05;9.60;99.90
70726;DHT22;58304;53.104;6.022;2023-01-05T02:14:19;9.60;99.90
70726;DHT22;58304;53.104;6.022;2023-01-05T02:20:14;9.60;99.90
70726;DHT22;58304;53.104;6.022;2023-01-05T02:23:17;9.60;99.90
70726;DHT22;58304;53.104;6.022;2023-01-05T02:29:10;9.60;99.90
70726;DHT22;58304;53.104;6.022;2023-01-05T02:31:57;9.70;99.90
70726;DHT22;58304;53.104;6.022;2023-01-05T02:40:04;9.60;99.90
70726;DHT22;58304;53.104;6.022;2023-01-05T02:42:31;9.60;99.90
70726;DHT22;58304;53.104;6.022;2023-01-05T02:45:06;9.60;99.90
70726;DHT22;58304;53.104;6.022;2023-01-05T02:47:37;9.60;99.90
70726;DHT22;58304;53.104;6.022;2023-01-05T02:50:22;9.60;99.90
70726;DHT22;58304;53.104;6.022;2023-01-05T02:52:51;9.60;99.90
70726;DHT22;58304;53.104;6.022;2023-01-05T02:55:27;9.60;99.90
70726;DHT22;58304;53.104;6.022;2023-01-05T02:58:01;9.50;99.90
70726;DHT22;58304;53.104;6.022;2023-01-05T03:00:33;9.50;99.90
70726;DHT22;58304;53.104;6.022;2023-01-05T03:03:12;9.50;99.90
70726;DHT22;58304;53.104;6.022;2023-01-05T03:05:54;9.40;99.90
70726;DHT22;58304;53.104;6.022;2023-01-05T03:08:22;9.30;99.90
70726;DHT22;58304;53.104;6.022;2023-01-05T03:10:57;9.40;99.90
70726;DHT22;58304;53.104;6.022;2023-01-05T03:13:45;9.40;99.90
70726;DHT22;58304;53.104;6.022;2023-01-05T03:16:17;9.30;99.90
70726;DHT22;58304;53.104;6.022;2023-01-05T03:18:45;9.30;99.90
70726;DHT22;58304;53.104;6.022;2023-01-05T03:21:30;9.30;99.90
70726;DHT22;58304;53.104;6.022;2023-01-05T03:24:14;9.40;99.90
70726;DHT22;58304;53.104;6.022;2023-01-05T03:27:01;9.40;99.90
70726;DHT22;58304;53.104;6.022;2023-01-05T03:29:45;9.40;99.90
70726;DHT22;58304;53.104;6.022;2023-01-05T03:32:31;9.50;99.90
70726;DHT22;58304;53.104;6.022;2023-01-05T03:35:22;9.40;99.90
70726;DHT22;58304;53.104;6.022;2023-01-05T03:38:11;9.40;99.90
70726;DHT22;58304;53.104;6.022;2023-01-05T03:40:39;9.40;99.90
70726;DHT22;58304;53.104;6.022;2023-01-05T03:43:05;9.40;99.90
70726;DHT22;58304;53.104;6.022;2023-01-05T03:45:44;9.50;99.90
70726;DHT22;58304;53.104;6.022;2023-01-05T03:48:10;9.50;99.90
70726;DHT22;58304;53.104;6.022;2023-01-05T03:50:35;9.50;99.90
70726;DHT22;58304;53.104;6.022;2023-01-05T03:53:01;9.50;99.90
70726;DHT22;58304;53.104;6.022;2023-01-05T03:55:27;9.40;99.90
70726;DHT22;58304;53.104;6.022;2023-01-05T03:57:52;9.40;99.90
70726;DHT22;58304;53.104;6.022;2023-01-05T04:00:20;9.40;99.90
70726;DHT22;58304;53.104;6.022;2023-01-05T04:02:45;9.40;99.90
70726;DHT22;58304;53.104;6.022;2023-01-05T04:05:11;9.50;99.90
70726;DHT22;58304;53.104;6.022;2023-01-05T04:07:37;9.50;99.90
70726;DHT22;58304;53.104;6.022;2023-01-05T04:10:02;9.40;99.90
70726;DHT22;58304;53.104;6.022;2023-01-05T04:12:28;9.40;99.90
70726;DHT22;58304;53.104;6.022;2023-01-05T04:14:54;9.40;99.90
70726;DHT22;58304;53.104;6.022;2023-01-05T04:17:19;9.40;99.90
70726;DHT22;58304;53.104;6.022;2023-01-05T04:19:45;9.40;99.90
70726;DHT22;58304;53.104;6.022;2023-01-05T04:22:10;9.30;99.90
70726;DHT22;58304;53.104;6.022;2023-01-05T04:24:36;9.20;99.90
70726;DHT22;58304;53.104;6.022;2023-01-05T04:27:01;9.20;99.90
70726;DHT22;58304;53.104;6.022;2023-01-05T04:29:27;9.20;99.90
70726;DHT22;58304;53.104;6.022;2023-01-05T04:31:53;9.20;99.90
70726;DHT22;58304;53.104;6.022;2023-01-05T04:34:18;9.30;99.90
70726;DHT22;58304;53.104;6.022;2023-01-05T04:36:45;9.30;99.90
70726;DHT22;58304;53.104;6.022;2023-01-05T04:39:12;9.40;99.90
70726;DHT22;58304;53.104;6.022;2023-01-05T04:41:38;9.30;99.90
70726;DHT22;58304;53.104;6.022;2023-01-05T04:44:04;9.40;99.90
70726;DHT22;58304;53.104;6.022;2023-01-05T04:46:29;9.40;99.90
70726;DHT22;58304;53.104;6.022;2023-01-05T04:48:55;9.50;99.90
70726;DHT22;58304;53.104;6.022;2023-01-05T04:51:20;9.50;99.90
70726;DHT22;58304;53.104;6.022;2023-01-05T04:53:46;9.50;99.90
70726;DHT22;58304;53.104;6.022;2023-01-05T04:56:11;9.50;99.90
70726;DHT22;58304;53.104;6.022;2023-01-05T04:58:37;9.50;99.90
70726;DHT22;58304;53.104;6.022;2023-01-05T05:01:02;9.50;99.90
70726;DHT22;58304;53.104;6.022;2023-01-05T05:03:28;9.40;99.90
70726;DHT22;58304;53.104;6.022;2023-01-05T05:05:54;9.50;99.90
70726;DHT22;58304;53.104;6.022;2023-01-05T05:08:19;9.40;99.90
70726;DHT22;58304;53.104;6.022;2023-01-05T05:10:45;9.40;99.90
70726;DHT22;58304;53.104;6.022;2023-01-05T05:13:10;9.40;99.90
70726;DHT22;58304;53.104;6.022;2023-01-05T05:15:36;9.40;99.90
70726;DHT22;58304;53.104;6.022;2023-01-05T05:18:01;9.50;99.90
70726;DHT22;58304;53.104;6.022;2023-01-05T05:20:27;9.50;99.90
70726;DHT22;58304;53.104;6.022;2023-01-05T05:22:52;9.50;99.90
70726;DHT22;58304;53.104;6.022;2023-01-05T05:25:18;9.50;99.90
70726;DHT22;58304;53.104;6.022;2023-01-05T05:27:43;9.50;99.90
70726;DHT22;58304;53.104;6.022;2023-01-05T05:30:09;9.50;99.90
70726;DHT22;58304;53.104;6.022;2023-01-05T05:32:35;9.50;99.90
70726;DHT22;58304;53.104;6.022;2023-01-05T05:35:00;9.60;99.90
70726;DHT22;58304;53.104;6.022;2023-01-05T05:37:26;9.50;99.90
70726;DHT22;58304;53.104;6.022;2023-01-05T05:39:52;9.60;99.90
70726;DHT22;58304;53.104;6.022;2023-01-05T05:42:17;9.60;99.90
70726;DHT22;58304;53.104;6.022;2023-01-05T05:44:43;9.50;99.90
70726;DHT22;58304;53.104;6.022;2023-01-05T05:47:08;9.50;99.90
70726;DHT22;58304;53.104;6.022;2023-01-05T05:49:34;9.60;99.90
70726;DHT22;58304;53.104;6.022;2023-01-05T05:51:59;9.50;99.90
70726;DHT22;58304;53.104;6.022;2023-01-05T05:54:25;9.50;99.90
70726;DHT22;58304;53.104;6.022;2023-01-05T05:56:50;9.50;99.90
70726;DHT22;58304;53.104;6.022;2023-01-05T05:59:16;9.50;99.90
70726;DHT22;58304;53.104;6.022;2023-01-05T06:01:41;9.50;99.90
70726;DHT22;58304;53.104;6.022;2023-01-05T06:04:07;9.50;99.90
70726;DHT22;58304;53.104;6.022;2023-01-05T06:06:32;9.50;99.90
70726;DHT22;58304;53.104;6.022;2023-01-05T06:08:58;9.50;99.90
70726;DHT22;58304;53.104;6.022;2023-01-05T06:11:23;9.50;99.90
70726;DHT22;58304;53.104;6.022;2023-01-05T06:13:49;9.50;99.90
70726;DHT22;58304;53.104;6.022;2023-01-05T06:16:14;9.50;99.90
70726;DHT22;58304;53.104;6.022;2023-01-05T06:18:40;9.50;99.90
70726;DHT22;58304;53.104;6.022;2023-01-05T06:21:06;9.50;99.90
70726;DHT22;58304;53.104;6.022;2023-01-05T06:23:31;9.50;99.90
70726;DHT22;58304;53.104;6.022;2023-01-05T06:25:57;9.50;99.90
70726;DHT22;58304;53.104;6.022;2023-01-05T06:28:22;9.50;99.90
70726;DHT22;58304;53.104;6.022;2023-01-05T06:30:48;9.40;99.90
70726;DHT22;58304;53.104;6.022;2023-01-05T06:33:14;9.50;99.90
70726;DHT22;58304;53.104;6.022;2023-01-05T06:35:39;9.50;99.90
70726;DHT22;58304;53.104;6.022;2023-01-05T06:38:05;9.40;99.90
70726;DHT22;58304;53.104;6.022;2023-01-05T06:40:30;9.50;99.90
70726;DHT22;58304;53.104;6.022;2023-01-05T06:42:56;9.40;99.90
70726;DHT22;58304;53.104;6.022;2023-01-05T06:45:21;9.40;99.90
70726;DHT22;58304;53.104;6.022;2023-01-05T06:47:47;9.40;99.90
70726;DHT22;58304;53.104;6.022;2023-01-05T06:50:12;9.40;99.90
70726;DHT22;58304;53.104;6.022;2023-01-05T06:52:38;9.40;99.90
70726;DHT22;58304;53.104;6.022;2023-01-05T06:55:05;9.40;99.90
70726;DHT22;58304;53.104;6.022;2023-01-05T06:57:31;9.40;99.90
70726;DHT22;58304;53.104;6.022;2023-01-05T06:59:56;9.40;99.90
70726;DHT22;58304;53.104;6.022;2023-01-05T07:02:21;9.40;99.90
70726;DHT22;58304;53.104;6.022;2023-01-05T07:04:47;9.30;99.90
70726;DHT22;58304;53.104;6.022;2023-01-05T07:07:15;9.40;99.90
70726;DHT22;58304;53.104;6.022;2023-01-05T07:09:41;9.40;99.90
70726;DHT22;58304;53.104;6.022;2023-01-05T07:12:07;9.30;99.90
70726;DHT22;58304;53.104;6.022;2023-01-05T07:14:32;9.40;99.90
70726;DHT22;58304;53.104;6.022;2023-01-05T07:16:58;9.40;99.90
70726;DHT22;58304;53.104;6.022;2023-01-05T07:19:24;9.40;99.90
70726;DHT22;58304;53.104;6.022;2023-01-05T07:21:50;9.30;99.90
70726;DHT22;58304;53.104;6.022;2023-01-05T07:24:15;9.20;99.90
70726;DHT22;58304;53.104;6.022;2023-01-05T07:26:41;9.20;99.90
70726;DHT22;58304;53.104;6.022;2023-01-05T07:29:07;9.20;99.90
70726;DHT22;58304;53.104;6.022;2023-01-05T07:31:32;9.20;99.90
70726;DHT22;58304;53.104;6.022;2023-01-05T07:33:57;9.10;99.90
70726;DHT22;58304;53.104;6.022;2023-01-05T07:36:23;9.20;99.90
70726;DHT22;58304;53.104;6.022;2023-01-05T07:38:51;9.20;99.90
70726;DHT22;58304;53.104;6.022;2023-01-05T07:41:16;9.10;99.90
70726;DHT22;58304;53.104;6.022;2023-01-05T07:43:42;9.10;99.90
70726;DHT22;58304;53.104;6.022;2023-01-05T07:46:08;9.20;99.90
70726;DHT22;58304;53.104;6.022;2023-01-05T07:48:33;9.10;99.90
70726;DHT22;58304;53.104;6.022;2023-01-05T07:51:02;9.20;99.90
70726;DHT22;58304;53.104;6.022;2023-01-05T07:53:29;9.10;99.90
70726;DHT22;58304;53.104;6.022;2023-01-05T07:56:00;9.20;99.90
70726;DHT22;58304;53.104;6.022;2023-01-05T07:58:27;9.20;99.90
70726;DHT22;58304;53.104;6.022;2023-01-05T08:00:53;9.20;99.90
70726;DHT22;58304;53.104;6.022;2023-01-05T08:03:19;9.20;99.90
70726;DHT22;58304;53.104;6.022;2023-01-05T08:05:45;9.20;99.90
70726;DHT22;58304;53.104;6.022;2023-01-05T08:08:11;9.20;99.90
70726;DHT22;58304;53.104;6.022;2023-01-05T08:10:41;9.20;99.90
70726;DHT22;58304;53.104;6.022;2023-01-05T08:13:08;9.20;99.90
70726;DHT22;58304;53.104;6.022;2023-01-05T08:15:54;9.10;99.90
70726;DHT22;58304;53.104;6.022;2023-01-05T08:18:21;9.20;99.90
70726;DHT22;58304;53.104;6.022;2023-01-05T08:20:55;9.20;99.90
70726;DHT22;58304;53.104;6.022;2023-01-05T08:23:21;9.20;99.90
70726;DHT22;58304;53.104;6.022;2023-01-05T08:25:47;9.20;99.90
70726;DHT22;58304;53.104;6.022;2023-01-05T08:28:13;9.30;99.90
70726;DHT22;58304;53.104;6.022;2023-01-05T08:30:38;9.30;99.90
70726;DHT22;58304;53.104;6.022;2023-01-05T08:33:04;9.30;99.90
70726;DHT22;58304;53.104;6.022;2023-01-05T08:35:30;9.30;99.90
70726;DHT22;58304;53.104;6.022;2023-01-05T08:37:56;9.30;99.90
70726;DHT22;58304;53.104;6.022;2023-01-05T08:40:21;9.30;99.90
70726;DHT22;58304;53.104;6.022;2023-01-05T08:42:47;9.30;99.90
70726;DHT22;58304;53.104;6.022;2023-01-05T08:45:13;9.40;99.90
70726;DHT22;58304;53.104;6.022;2023-01-05T08:47:39;9.40;99.90
70726;DHT22;58304;53.104;6.022;2023-01-05T08:50:05;9.40;99.90
70726;DHT22;58304;53.104;6.022;2023-01-05T08:52:31;9.40;99.90
70726;DHT22;58304;53.104;6.022;2023-01-05T08:54:56;9.40;99.90
70726;DHT22;58304;53.104;6.022;2023-01-05T08:57:22;9.40;99.90
70726;DHT22;58304;53.104;6.022;2023-01-05T08:59:48;9.50;99.90
70726;DHT22;58304;53.104;6.022;2023-01-05T09:02:13;9.50;99.90
70726;DHT22;58304;53.104;6.022;2023-01-05T09:04:39;9.50;99.90
70726;DHT22;58304;53.104;6.022;2023-01-05T09:07:04;9.40;99.90
70726;DHT22;58304;53.104;6.022;2023-01-05T09:09:30;9.40;99.90
70726;DHT22;58304;53.104;6.022;2023-01-05T09:11:55;9.50;99.90
70726;DHT22;58304;53.104;6.022;2023-01-05T09:14:21;9.50;99.90
70726;DHT22;58304;53.104;6.022;2023-01-05T09:16:46;9.50;99.90
70726;DHT22;58304;53.104;6.022;2023-01-05T09:19:12;9.50;99.90
70726;DHT22;58304;53.104;6.022;2023-01-05T09:21:37;9.50;99.90
70726;DHT22;58304;53.104;6.022;2023-01-05T09:24:04;9.50;99.90
70726;DHT22;58304;53.104;6.022;2023-01-05T09:26:32;9.50;99.90
70726;DHT22;58304;53.104;6.022;2023-01-05T09:28:58;9.60;99.90
70726;DHT22;58304;53.104;6.022;2023-01-05T09:31:24;9.50;99.90
70726;DHT22;58304;53.104;6.022;2023-01-05T09:33:50;9.60;99.90
70726;DHT22;58304;53.104;6.022;2023-01-05T09:36:17;9.60;99.90
70726;DHT22;58304;53.104;6.022;2023-01-05T09:38:47;9.60;99.90
70726;DHT22;58304;53.104;6.022;2023-01-05T09:41:20;9.60;99.90
70726;DHT22;58304;53.104;6.022;2023-01-05T09:43:50;9.60;99.90
70726;DHT22;58304;53.104;6.022;2023-01-05T09:46:20;9.60;99.90
70726;DHT22;58304;53.104;6.022;2023-01-05T09:48:51;9.60;99.90
70726;DHT22;58304;53.104;6.022;2023-01-05T09:51:17;9.70;99.90
70726;DHT22;58304;53.104;6.022;2023-01-05T09:53:42;9.70;99.90
70726;DHT22;58304;53.104;6.022;2023-01-05T09:56:26;9.70;99.90
70726;DHT22;58304;53.104;6.022;2023-01-05T10:01:31;9.70;99.90
70726;DHT22;58304;53.104;6.022;2023-01-05T10:04:01;9.80;99.90
70726;DHT22;58304;53.104;6.022;2023-01-05T10:06:31;9.90;99.90
70726;DHT22;58304;53.104;6.022;2023-01-05T10:08:59;9.90;99.90
70726;DHT22;58304;53.104;6.022;2023-01-05T10:11:34;9.90;99.90
70726;DHT22;58304;53.104;6.022;2023-01-05T10:14:29;9.90;99.90
70726;DHT22;58304;53.104;6.022;2023-01-05T10:16:56;9.90;99.90
70726;DHT22;58304;53.104;6.022;2023-01-05T10:19:24;9.90;99.90
70726;DHT22;58304;53.104;6.022;2023-01-05T10:22:25;9.90;99.90
70726;DHT22;58304;53.104;6.022;2023-01-05T10:25:00;9.90;99.90
70726;DHT22;58304;53.104;6.022;2023-01-05T10:27:45;9.90;99.90
70726;DHT22;58304;53.104;6.022;2023-01-05T10:30:38;10.00;99.90
70726;DHT22;58304;53.104;6.022;2023-01-05T10:33:26;10.00;99.90
70726;DHT22;58304;53.104;6.022;2023-01-05T10:36:02;10.10;99.90
70726;DHT22;58304;53.104;6.022;2023-01-05T10:46:51;10.30;99.90
70726;DHT22;58304;53.104;6.022;2023-01-05T10:49:30;10.30;99.90
70726;DHT22;58304;53.104;6.022;2023-01-05T10:51:58;10.20;99.90
70726;DHT22;58304;53.104;6.022;2023-01-05T11:02:29;10.20;99.90
70726;DHT22;58304;53.104;6.022;2023-01-05T11:05:02;10.10;99.90
70726;DHT22;58304;53.104;6.022;2023-01-05T11:07:28;10.10;99.90
70726;DHT22;58304;53.104;6.022;2023-01-05T11:09:53;10.10;99.90
70726;DHT22;58304;53.104;6.022;2023-01-05T11:12:21;10.10;99.90
70726;DHT22;58304;53.104;6.022;2023-01-05T11:14:53;10.10;99.90
70726;DHT22;58304;53.104;6.022;2023-01-05T11:17:22;10.20;99.90
70726;DHT22;58304;53.104;6.022;2023-01-05T11:19:51;10.20;99.90
70726;DHT22;58304;53.104;6.022;2023-01-05T11:22:34;10.30;99.90
70726;DHT22;58304;53.104;6.022;2023-01-05T11:25:26;10.40;99.90
70726;DHT22;58304;53.104;6.022;2023-01-05T11:30:36;10.60;99.90
70726;DHT22;58304;53.104;6.022;2023-01-05T11:33:02;10.60;99.90
70726;DHT22;58304;53.104;6.022;2023-01-05T11:35:35;10.60;99.90
70726;DHT22;58304;53.104;6.022;2023-01-05T11:38:02;10.50;99.90
70726;DHT22;58304;53.104;6.022;2023-01-05T11:40:30;10.60;99.90
70726;DHT22;58304;53.104;6.022;2023-01-05T11:42:57;10.60;99.90
70726;DHT22;58304;53.104;6.022;2023-01-05T11:45:32;10.60;99.90
70726;DHT22;58304;53.104;6.022;2023-01-05T11:48:02;10.70;99.90
70726;DHT22;58304;53.104;6.022;2023-01-05T11:50:42;10.70;99.90
70726;DHT22;58304;53.104;6.022;2023-01-05T11:53:23;10.70;99.90
70726;DHT22;58304;53.104;6.022;2023-01-05T11:58:46;10.60;99.90
70726;DHT22;58304;53.104;6.022;2023-01-05T12:10:09;10.50;99.90
70726;DHT22;58304;53.104;6.022;2023-01-05T12:21:26;10.40;99.90
70726;DHT22;58304;53.104;6.022;2023-01-05T12:24:03;10.40;99.90
70726;DHT22;58304;53.104;6.022;2023-01-05T12:37:47;10.40;99.90
70726;DHT22;58304;53.104;6.022;2023-01-05T12:40:48;10.40;99.90
70726;DHT22;58304;53.104;6.022;2023-01-05T12:43:44;10.30;99.90
70726;DHT22;58304;53.104;6.022;2023-01-05T12:49:29;10.30;99.90
70726;DHT22;58304;53.104;6.022;2023-01-05T12:52:11;10.30;99.90
70726;DHT22;58304;53.104;6.022;2023-01-05T12:54:52;10.30;99.90
70726;DHT22;58304;53.104;6.022;2023-01-05T12:57:38;10.30;99.90
70726;DHT22;58304;53.104;6.022;2023-01-05T13:00:11;10.40;99.90
70726;DHT22;58304;53.104;6.022;2023-01-05T13:02:46;10.50;99.90
70726;DHT22;58304;53.104;6.022;2023-01-05T13:05:36;10.50;99.90
70726;DHT22;58304;53.104;6.022;2023-01-05T13:13:23;10.50;99.90
70726;DHT22;58304;53.104;6.022;2023-01-05T13:16:13;10.40;99.90
70726;DHT22;58304;53.104;6.022;2023-01-05T13:18:46;10.40;99.90
70726;DHT22;58304;53.104;6.022;2023-01-05T13:21:14;10.40;99.90
70726;DHT22;58304;53.104;6.022;2023-01-05T13:23:46;10.40;99.90
70726;DHT22;58304;53.104;6.022;2023-01-05T13:26:20;10.40;99.90
70726;DHT22;58304;53.104;6.022;2023-01-05T13:28:52;10.40;99.90
70726;DHT22;58304;53.104;6.022;2023-01-05T13:42:22;10.40;99.90
70726;DHT22;58304;53.104;6.022;2023-01-05T13:47:50;10.30;99.90
70726;DHT22;58304;53.104;6.022;2023-01-05T13:53:25;10.30;99.90
70726;DHT22;58304;53.104;6.022;2023-01-05T13:56:01;10.30;99.90
70726;DHT22;58304;53.104;6.022;2023-01-05T13:58:47;10.20;99.90
70726;DHT22;58304;53.104;6.022;2023-01-05T14:01:37;10.30;99.90
70726;DHT22;58304;53.104;6.022;2023-01-05T14:04:13;10.20;99.90
70726;DHT22;58304;53.104;6.022;2023-01-05T14:06:43;10.20;99.90
70726;DHT22;58304;53.104;6.022;2023-01-05T14:09:26;10.20;99.90
70726;DHT22;58304;53.104;6.022;2023-01-05T14:22:54;10.20;99.90
70726;DHT22;58304;53.104;6.022;2023-01-05T14:36:32;10.30;99.90
70726;DHT22;58304;53.104;6.022;2023-01-05T14:39:01;10.30;99.90
70726;DHT22;58304;53.104;6.022;2023-01-05T14:41:29;10.30;99.90
70726;DHT22;58304;53.104;6.022;2023-01-05T14:44:13;10.30;99.90
70726;DHT22;58304;53.104;6.022;2023-01-05T14:46:52;10.30;99.90
70726;DHT22;58304;53.104;6.022;2023-01-05T14:49:33;10.30;99.90
70726;DHT22;58304;53.104;6.022;2023-01-05T14:52:01;10.30;99.90
70726;DHT22;58304;53.104;6.022;2023-01-05T14:59:50;10.20;99.90
70726;DHT22;58304;53.104;6.022;2023-01-05T15:02:24;10.20;99.90
70726;DHT22;58304;53.104;6.022;2023-01-05T15:04:55;10.10;99.90
70726;DHT22;58304;53.104;6.022;2023-01-05T15:07:48;10.10;99.90
70726;DHT22;58304;53.104;6.022;2023-01-05T15:10:47;10.10;99.90
70726;DHT22;58304;53.104;6.022;2023-01-05T15:13:29;10.00;99.90
70726;DHT22;58304;53.104;6.022;2023-01-05T15:16:24;9.90;99.90
70726;DHT22;58304;53.104;6.022;2023-01-05T15:20:09;9.90;99.90
70726;DHT22;58304;53.104;6.022;2023-01-05T15:22:40;9.80;99.90
70726;DHT22;58304;53.104;6.022;2023-01-05T15:31:26;9.70;99.90
70726;DHT22;58304;53.104;6.022;2023-01-05T15:34:36;9.60;99.90
70726;DHT22;58304;53.104;6.022;2023-01-05T15:37:33;9.60;99.90
70726;DHT22;58304;53.104;6.022;2023-01-05T15:39:59;9.60;99.90
70726;DHT22;58304;53.104;6.022;2023-01-05T15:42:38;9.60;99.90
70726;DHT22;58304;53.104;6.022;2023-01-05T15:45:15;9.50;99.90
70726;DHT22;58304;53.104;6.022;2023-01-05T15:47:41;9.60;99.90
70726;DHT22;58304;53.104;6.022;2023-01-05T15:50:19;9.50;99.90
70726;DHT22;58304;53.104;6.022;2023-01-05T15:52:54;9.50;99.90
70726;DHT22;58304;53.104;6.022;2023-01-05T15:55:21;9.50;99.90
70726;DHT22;58304;53.104;6.022;2023-01-05T15:57:59;9.40;99.90
70726;DHT22;58304;53.104;6.022;2023-01-05T16:00:27;9.40;99.90
70726;DHT22;58304;53.104;6.022;2023-01-05T16:02:54;9.40;99.90
70726;DHT22;58304;53.104;6.022;2023-01-05T16:05:25;9.40;99.90
70726;DHT22;58304;53.104;6.022;2023-01-05T16:07:54;9.40;99.90
70726;DHT22;58304;53.104;6.022;2023-01-05T16:10:29;9.30;99.90
70726;DHT22;58304;53.104;6.022;2023-01-05T16:13:10;9.30;99.90
70726;DHT22;58304;53.104;6.022;2023-01-05T16:15:37;9.30;99.90
70726;DHT22;58304;53.104;6.022;2023-01-05T16:18:05;9.30;99.90
70726;DHT22;58304;53.104;6.022;2023-01-05T16:20:31;9.30;99.90
70726;DHT22;58304;53.104;6.022;2023-01-05T16:25:26;9.30;99.90
70726;DHT22;58304;53.104;6.022;2023-01-05T16:28:01;9.20;99.90
70726;DHT22;58304;53.104;6.022;2023-01-05T16:30:41;9.20;99.90
70726;DHT22;58304;53.104;6.022;2023-01-05T16:43:34;9.20;99.90
70726;DHT22;58304;53.104;6.022;2023-01-05T16:51:53;9.20;99.90
70726;DHT22;58304;53.104;6.022;2023-01-05T16:53:57;9.10;99.90
70726;DHT22;58304;53.104;6.022;2023-01-05T16:59:00;9.10;99.90
70726;DHT22;58304;53.104;6.022;2023-01-05T17:01:40;9.10;99.90
70726;DHT22;58304;53.104;6.022;2023-01-05T17:04:13;9.10;99.90
70726;DHT22;58304;53.104;6.022;2023-01-05T17:06:44;9.10;99.90
70726;DHT22;58304;53.104;6.022;2023-01-05T17:09:20;9.00;99.90
70726;DHT22;58304;53.104;6.022;2023-01-05T17:11:46;9.00;99.90
70726;DHT22;58304;53.104;6.022;2023-01-05T17:14:13;9.00;99.90
70726;DHT22;58304;53.104;6.022;2023-01-05T17:16:39;9.00;99.90
70726;DHT22;58304;53.104;6.022;2023-01-05T17:19:18;9.00;99.90
70726;DHT22;58304;53.104;6.022;2023-01-05T17:21:55;9.00;99.90
70726;DHT22;58304;53.104;6.022;2023-01-05T17:24:21;9.00;99.90
70726;DHT22;58304;53.104;6.022;2023-01-05T17:26:47;9.00;99.90
70726;DHT22;58304;53.104;6.022;2023-01-05T17:29:20;9.00;99.90
70726;DHT22;58304;53.104;6.022;2023-01-05T17:31:45;9.00;99.90
70726;DHT22;58304;53.104;6.022;2023-01-05T17:34:11;9.10;99.90
70726;DHT22;58304;53.104;6.022;2023-01-05T17:36:37;9.10;99.90
70726;DHT22;58304;53.104;6.022;2023-01-05T17:39:03;9.00;99.90
70726;DHT22;58304;53.104;6.022;2023-01-05T17:41:29;9.10;99.90
70726;DHT22;58304;53.104;6.022;2023-01-05T17:43:55;9.10;99.90
70726;DHT22;58304;53.104;6.022;2023-01-05T17:46:25;9.10;99.90
70726;DHT22;58304;53.104;6.022;2023-01-05T17:48:53;9.10;99.90
70726;DHT22;58304;53.104;6.022;2023-01-05T17:51:19;9.10;99.90
70726;DHT22;58304;53.104;6.022;2023-01-05T17:53:45;9.10;99.90
70726;DHT22;58304;53.104;6.022;2023-01-05T17:56:10;9.10;99.90
70726;DHT22;58304;53.104;6.022;2023-01-05T17:58:36;9.10;99.90
70726;DHT22;58304;53.104;6.022;2023-01-05T18:01:04;9.10;99.90
70726;DHT22;58304;53.104;6.022;2023-01-05T18:03:31;9.10;99.90
70726;DHT22;58304;53.104;6.022;2023-01-05T18:05:59;9.10;99.90
70726;DHT22;58304;53.104;6.022;2023-01-05T18:08:25;9.20;99.90
70726;DHT22;58304;53.104;6.022;2023-01-05T18:10:51;9.10;99.90
70726;DHT22;58304;53.104;6.022;2023-01-05T18:13:17;9.20;99.90
70726;DHT22;58304;53.104;6.022;2023-01-05T18:15:43;9.20;99.90
70726;DHT22;58304;53.104;6.022;2023-01-05T18:18:10;9.30;99.90
70726;DHT22;58304;53.104;6.022;2023-01-05T18:20:39;9.10;99.90
70726;DHT22;58304;53.104;6.022;2023-01-05T18:23:05;9.20;99.90
70726;DHT22;58304;53.104;6.022;2023-01-05T18:25:30;9.20;99.90
70726;DHT22;58304;53.104;6.022;2023-01-05T18:27:56;9.10;99.90
70726;DHT22;58304;53.104;6.022;2023-01-05T18:30:21;9.10;99.90
70726;DHT22;58304;53.104;6.022;2023-01-05T18:32:47;9.10;99.90
70726;DHT22;58304;53.104;6.022;2023-01-05T18:35:13;9.10;99.90
70726;DHT22;58304;53.104;6.022;2023-01-05T18:37:40;9.10;99.90